Time;durP1;ratioP1;P1;durP2;ratioP2;P2;SDS_P1;SDS_P2;PMS_P1;PMS_P2;Temp;Humidity;BMP_temperature;BMP_pressure;BME280_temperature;BME280_humidity;BME280_pressure;Samples;Min_cycle;Max_cycle;Signal;HPM_P1;HPM_P2
2022/01/30 00:00:00;;;;;;;2.05;1.50;;;5.00;99.90;;;;;;5002701;28;20057;-81
2022/01/30 00:02:27;;;;;;;0.65;0.65;;;4.90;99.90;;;;;;5003456;28;20570;-81
2022/01/30 00:04:53;;;;;;;1.42;1.10;;;4.80;99.90;;;;;;5002161;28;20042;-81
2022/01/30 00:07:19;;;;;;;0.80;0.80;;;4.90;99.90;;;;;;4998335;28;20149;-81
2022/01/30 00:09:46;;;;;;;1.02;1.02;;;4.90;99.90;;;;;;5002657;28;20061;-81
2022/01/30 00:12:15;;;;;;;0.63;0.63;;;4.90;99.90;;;;;;5003124;28;20038;-81
2022/01/30 00:14:40;;;;;;;0.73;0.73;;;5.00;99.90;;;;;;5003402;28;20061;-80
2022/01/30 00:17:19;;;;;;;1.10;1.08;;;5.00;99.90;;;;;;4985338;28;20051;-81
2022/01/30 00:19:55;;;;;;;1.95;1.08;;;5.10;99.90;;;;;;4994530;28;20046;-80
2022/01/30 00:22:48;;;;;;;1.48;1.05;;;5.20;99.90;;;;;;5003643;28;20073;-81
2022/01/30 00:25:15;;;;;;;2.05;1.50;;;5.20;99.90;;;;;;4997621;28;20051;-81
2022/01/30 00:27:48;;;;;;;1.05;1.02;;;5.30;99.90;;;;;;4998630;28;20109;-81
2022/01/30 00:30:16;;;;;;;0.60;0.60;;;5.40;99.90;;;;;;5002718;28;20042;-82
2022/01/30 00:32:41;;;;;;;2.38;1.25;;;5.40;99.90;;;;;;5003382;28;20046;-82
2022/01/30 00:35:11;;;;;;;0.63;0.63;;;5.40;99.90;;;;;;4996961;28;20050;-81
2022/01/30 00:37:41;;;;;;;1.00;0.90;;;5.40;99.90;;;;;;4984910;28;20118;-82
2022/01/30 00:40:08;;;;;;;2.67;0.95;;;5.40;99.90;;;;;;4998800;28;20073;-80
2022/01/30 00:42:33;;;;;;;2.50;1.40;;;5.40;99.90;;;;;;5002280;28;20047;-81
2022/01/30 00:44:59;;;;;;;0.70;0.70;;;5.20;99.90;;;;;;5001055;28;20089;-81
2022/01/30 00:47:25;;;;;;;0.70;0.70;;;4.90;99.90;;;;;;5000522;28;20077;-81
2022/01/30 00:49:51;;;;;;;2.60;0.90;;;4.60;99.90;;;;;;4994644;28;20056;-81
2022/01/30 00:52:17;;;;;;;1.13;1.05;;;4.40;99.90;;;;;;4995437;28;20098;-81
2022/01/30 00:54:44;;;;;;;1.85;1.15;;;4.30;99.90;;;;;;4999827;28;20046;-81
2022/01/30 00:57:10;;;;;;;0.85;0.85;;;4.30;99.90;;;;;;5002735;28;20054;-81
2022/01/30 00:59:36;;;;;;;1.50;1.10;;;4.30;99.90;;;;;;5002125;28;20058;-81
2022/01/30 01:02:02;;;;;;;1.00;0.90;;;4.30;99.90;;;;;;5003119;28;20048;-78
2022/01/30 01:04:27;;;;;;;0.70;0.70;;;4.20;99.90;;;;;;4998344;28;20069;-78
2022/01/30 01:06:53;;;;;;;1.88;1.77;;;4.20;99.90;;;;;;5001221;28;20608;-78
2022/01/30 01:09:22;;;;;;;1.17;1.17;;;4.20;99.90;;;;;;4995752;28;20043;-78
2022/01/30 01:25:31;;;;;;;;;;;4.00;99.90;;;;;;5014249;28;20093;-81
2022/01/30 01:27:56;;;;;;;1.65;1.55;;;4.10;99.90;;;;;;5000014;28;19922;-81
2022/01/30 01:30:25;;;;;;;0.80;0.80;;;4.00;99.90;;;;;;4996835;28;20102;-81
2022/01/30 01:32:51;;;;;;;0.80;0.80;;;4.10;99.90;;;;;;5002124;28;20117;-81
2022/01/30 01:35:17;;;;;;;2.22;2.13;;;4.10;99.90;;;;;;5001729;28;20042;-81
2022/01/30 01:37:42;;;;;;;14.80;3.75;;;4.30;99.90;;;;;;4997488;28;20042;-81
2022/01/30 01:40:09;;;;;;;1.42;1.33;;;4.40;99.90;;;;;;4998951;28;20048;-80
2022/01/30 01:42:36;;;;;;;6.22;1.45;;;4.50;99.90;;;;;;5002059;28;20046;-81
2022/01/30 01:45:02;;;;;;;0.80;0.80;;;4.50;99.90;;;;;;5001393;28;20639;-81
2022/01/30 01:47:32;;;;;;;0.70;0.70;;;4.60;99.90;;;;;;5002031;28;20120;-81
2022/01/30 01:49:58;;;;;;;0.70;0.70;;;4.60;99.90;;;;;;5000999;28;20045;-81
2022/01/30 01:52:26;;;;;;;1.60;0.95;;;4.60;99.90;;;;;;5000314;28;20101;-82
2022/01/30 01:54:59;;;;;;;1.55;0.88;;;4.50;99.90;;;;;;4990737;28;20053;-81
2022/01/30 01:57:27;;;;;;;1.05;1.00;;;4.40;99.90;;;;;;4999829;28;20082;-81
2022/01/30 01:59:53;;;;;;;3.33;3.08;;;4.30;99.90;;;;;;4993259;28;20152;-81
2022/01/30 02:02:20;;;;;;;0.70;0.70;;;4.30;99.90;;;;;;4997352;28;20090;-81
2022/01/30 02:04:46;;;;;;;0.75;0.75;;;4.30;99.90;;;;;;5001445;28;20050;-81
2022/01/30 02:10:00;;;;;;;2.40;1.17;;;4.30;99.90;;;;;;4999813;28;20050;-81
2022/01/30 02:12:34;;;;;;;0.90;0.90;;;4.40;99.90;;;;;;5000996;28;20050;-78
2022/01/30 02:26:00;;;;;;;0.70;0.70;;;4.80;99.90;;;;;;4999406;28;20145;-79
2022/01/30 02:28:29;;;;;;;3.35;3.00;;;4.70;99.90;;;;;;5001513;28;20072;-78
2022/01/30 02:31:19;;;;;;;1.77;1.67;;;4.70;99.90;;;;;;4999210;28;20054;-79
2022/01/30 02:33:45;;;;;;;1.02;1.02;;;4.70;99.90;;;;;;5005227;28;20059;-79
2022/01/30 02:36:10;;;;;;;0.70;0.70;;;4.60;99.90;;;;;;5004836;28;20042;-79
2022/01/30 02:38:36;;;;;;;2.67;1.17;;;4.60;99.90;;;;;;5004924;28;20062;-80
2022/01/30 02:41:02;;;;;;;0.77;0.77;;;4.50;99.90;;;;;;5004299;28;20053;-79
2022/01/30 02:43:33;;;;;;;0.63;0.63;;;4.40;99.90;;;;;;5005268;28;20078;-79
2022/01/30 02:46:20;;;;;;;0.68;0.68;;;4.40;99.90;;;;;;5005063;28;20141;-79
2022/01/30 02:48:49;;;;;;;0.70;0.70;;;4.30;99.90;;;;;;5001707;28;20075;-79
2022/01/30 02:51:17;;;;;;;2.13;1.20;;;4.30;99.90;;;;;;5004783;28;20042;-79
2022/01/30 02:53:46;;;;;;;1.63;1.52;;;4.30;99.90;;;;;;5004311;28;20050;-79
2022/01/30 02:56:13;;;;;;;0.80;0.80;;;4.30;99.90;;;;;;5004679;28;20040;-80
2022/01/30 02:58:38;;;;;;;1.70;1.60;;;4.20;99.90;;;;;;5004883;28;20056;-80
2022/01/30 03:01:04;;;;;;;11.02;2.03;;;4.20;99.90;;;;;;5004741;28;20050;-80
2022/01/30 03:03:30;;;;;;;0.65;0.65;;;4.10;99.90;;;;;;5005100;28;20077;-80
2022/01/30 03:05:55;;;;;;;1.52;0.90;;;4.10;99.90;;;;;;5004554;28;20458;-80
2022/01/30 03:08:21;;;;;;;1.13;1.13;;;4.20;99.90;;;;;;4998734;28;20184;-80
2022/01/30 03:10:46;;;;;;;1.42;1.13;;;4.20;99.90;;;;;;5002669;28;20050;-80
2022/01/30 03:13:12;;;;;;;2.47;1.45;;;4.20;99.90;;;;;;5003013;28;20042;-80
2022/01/30 03:15:37;;;;;;;0.80;0.80;;;4.20;99.90;;;;;;5005188;28;20042;-80
2022/01/30 03:18:03;;;;;;;0.85;0.85;;;4.40;99.90;;;;;;5004527;28;20475;-80
2022/01/30 03:20:29;;;;;;;1.00;1.00;;;4.40;99.90;;;;;;5000226;28;20118;-80
2022/01/30 03:22:54;;;;;;;1.17;1.10;;;4.50;99.90;;;;;;4997346;28;20049;-80
2022/01/30 03:25:20;;;;;;;3.42;1.67;;;4.50;99.90;;;;;;5001451;28;21172;-79
2022/01/30 03:27:51;;;;;;;1.10;1.00;;;4.70;99.90;;;;;;5000930;28;20070;-80
2022/01/30 03:30:25;;;;;;;1.10;1.10;;;4.80;99.90;;;;;;5002124;28;20046;-79
2022/01/30 03:32:52;;;;;;;1.60;1.50;;;4.80;99.90;;;;;;5000572;28;20078;-80
2022/01/30 03:35:18;;;;;;;1.85;1.75;;;4.80;99.90;;;;;;4988911;28;20042;-80
2022/01/30 03:37:43;;;;;;;1.40;1.15;;;4.80;99.90;;;;;;4990261;28;20652;-80
2022/01/30 03:40:10;;;;;;;5.38;2.42;;;4.90;99.90;;;;;;4987405;28;20042;-79
2022/01/30 03:42:35;;;;;;;0.80;0.80;;;4.90;99.90;;;;;;4983218;28;20110;-79
2022/01/30 03:45:01;;;;;;;0.70;0.70;;;4.90;99.90;;;;;;4986879;28;20042;-80
2022/01/30 03:47:26;;;;;;;1.00;1.00;;;5.00;99.90;;;;;;4989966;28;20057;-80
2022/01/30 03:49:52;;;;;;;2.58;1.17;;;5.00;99.90;;;;;;4987632;28;20031;-80
2022/01/30 03:52:19;;;;;;;0.60;0.60;;;5.00;99.90;;;;;;4997336;28;20061;-80
2022/01/30 03:54:45;;;;;;;0.90;0.90;;;4.90;99.90;;;;;;5003707;28;20105;-80
2022/01/30 03:57:11;;;;;;;0.80;0.80;;;5.00;99.90;;;;;;4996148;28;20034;-80
2022/01/30 03:59:37;;;;;;;1.05;1.00;;;5.00;99.90;;;;;;5002917;28;20046;-80
2022/01/30 04:02:04;;;;;;;0.80;0.80;;;5.00;99.90;;;;;;5003152;28;20102;-80
2022/01/30 04:04:31;;;;;;;0.70;0.70;;;5.00;99.90;;;;;;5003349;28;20065;-80
2022/01/30 04:06:57;;;;;;;0.70;0.70;;;5.00;99.90;;;;;;4997892;28;20045;-80
2022/01/30 04:09:24;;;;;;;0.80;0.80;;;5.00;99.90;;;;;;5002070;28;20121;-80
2022/01/30 04:11:50;;;;;;;0.70;0.70;;;5.00;99.90;;;;;;5002250;28;20043;-80
2022/01/30 04:14:16;;;;;;;0.90;0.90;;;4.90;99.90;;;;;;4985739;28;20665;-80
2022/01/30 04:16:42;;;;;;;1.25;1.15;;;4.70;99.90;;;;;;5001957;28;20619;-80
2022/01/30 04:19:07;;;;;;;4.35;1.73;;;4.60;99.90;;;;;;5001500;28;20089;-79
2022/01/30 04:21:33;;;;;;;1.58;1.20;;;4.50;99.90;;;;;;5002777;28;20042;-80
2022/01/30 04:23:59;;;;;;;0.70;0.70;;;4.50;99.90;;;;;;5000286;28;20055;-79
2022/01/30 04:26:24;;;;;;;0.90;0.90;;;4.40;99.90;;;;;;5003479;28;20056;-80
2022/01/30 04:28:50;;;;;;;1.77;1.13;;;4.40;99.90;;;;;;5003833;28;20045;-80
2022/01/30 04:31:16;;;;;;;0.80;0.80;;;4.40;99.90;;;;;;5003234;28;20042;-80
2022/01/30 04:33:42;;;;;;;1.42;1.35;;;4.30;99.90;;;;;;5003658;28;20113;-79
2022/01/30 04:36:12;;;;;;;0.70;0.70;;;4.30;99.90;;;;;;5003662;28;20042;-79
2022/01/30 04:38:57;;;;;;;1.30;1.20;;;4.30;99.90;;;;;;5001360;28;20062;-79
2022/01/30 04:42:00;;;;;;;0.80;0.80;;;4.40;99.90;;;;;;5002464;28;20042;-80
2022/01/30 04:55:35;;;;;;;10.25;2.40;;;4.40;99.90;;;;;;4999733;28;20758;-80
2022/01/30 04:58:20;;;;;;;19.67;2.80;;;4.40;99.90;;;;;;5001618;28;20046;-80
2022/01/30 05:03:48;;;;;;;5.10;2.47;;;4.50;99.90;;;;;;5002080;28;20104;-79
2022/01/30 05:06:17;;;;;;;0.80;0.80;;;4.40;99.90;;;;;;5002275;28;20054;-80
2022/01/30 05:08:43;;;;;;;0.77;0.77;;;4.40;99.90;;;;;;5001641;28;20035;-80
2022/01/30 05:11:10;;;;;;;0.70;0.70;;;4.40;99.90;;;;;;4992109;28;20122;-81
2022/01/30 05:13:41;;;;;;;7.40;1.85;;;4.50;99.90;;;;;;5002697;28;20050;-80
2022/01/30 05:16:07;;;;;;;1.20;1.10;;;4.50;99.90;;;;;;4998351;28;20042;-80
2022/01/30 05:18:33;;;;;;;1.52;1.42;;;4.50;99.90;;;;;;5001996;28;20038;-80
2022/01/30 05:20:59;;;;;;;0.82;0.82;;;4.60;99.90;;;;;;5000404;28;20057;-81
2022/01/30 05:23:25;;;;;;;0.93;0.88;;;4.60;99.90;;;;;;5001715;28;20125;-80
2022/01/30 05:25:52;;;;;;;0.95;0.95;;;4.70;99.90;;;;;;5001495;28;20045;-80
2022/01/30 05:28:22;;;;;;;0.88;0.88;;;4.50;99.90;;;;;;5002066;28;20463;-80
2022/01/30 05:30:48;;;;;;;1.42;1.33;;;4.50;99.90;;;;;;5001914;28;20499;-80
2022/01/30 05:33:14;;;;;;;2.17;2.08;;;4.40;99.90;;;;;;5000911;28;20051;-80
2022/01/30 05:35:40;;;;;;;7.22;1.38;;;4.30;99.90;;;;;;5001827;28;20053;-80
2022/01/30 05:38:06;;;;;;;0.98;0.93;;;4.20;99.90;;;;;;5002012;28;20097;-80
2022/01/30 05:40:36;;;;;;;1.60;1.50;;;4.20;99.90;;;;;;5000560;28;20133;-79
2022/01/30 05:43:04;;;;;;;1.10;1.10;;;4.20;99.90;;;;;;5002387;28;20039;-80
2022/01/30 05:45:37;;;;;;;2.03;1.90;;;4.30;99.90;;;;;;5001924;28;20110;-80
2022/01/30 05:48:09;;;;;;;0.80;0.80;;;4.30;99.90;;;;;;5000260;28;20057;-80
2022/01/30 05:50:35;;;;;;;3.67;2.10;;;4.30;99.90;;;;;;4996368;28;20046;-80
2022/01/30 05:53:00;;;;;;;3.88;1.65;;;4.40;99.90;;;;;;5001855;28;20050;-80
2022/01/30 05:55:26;;;;;;;1.67;1.50;;;4.40;99.90;;;;;;5000534;28;20058;-80
2022/01/30 05:57:51;;;;;;;7.65;3.42;;;4.50;99.90;;;;;;5001580;28;20506;-80
2022/01/30 06:00:17;;;;;;;9.95;2.17;;;4.50;99.90;;;;;;4999484;28;20489;-80
2022/01/30 06:02:44;;;;;;;1.52;1.42;;;4.60;99.90;;;;;;5001700;28;20548;-80
2022/01/30 06:05:10;;;;;;;3.35;1.67;;;4.60;99.90;;;;;;4982948;28;20038;-80
2022/01/30 06:07:45;;;;;;;3.70;2.05;;;4.70;99.90;;;;;;4993133;28;20047;-80
2022/01/30 06:10:11;;;;;;;0.80;0.80;;;4.60;99.90;;;;;;4995633;28;20070;-80
2022/01/30 06:12:37;;;;;;;1.10;1.02;;;4.60;99.90;;;;;;4997520;28;20038;-80
2022/01/30 06:15:02;;;;;;;0.80;0.80;;;4.50;99.90;;;;;;5000862;28;20073;-80
2022/01/30 06:17:28;;;;;;;1.90;1.60;;;4.50;99.90;;;;;;5001477;28;20117;-80
2022/01/30 06:19:53;;;;;;;0.70;0.70;;;4.40;99.90;;;;;;4999751;28;20447;-80
2022/01/30 06:22:19;;;;;;;3.70;2.00;;;4.50;99.90;;;;;;5001276;28;20098;-80
2022/01/30 06:24:45;;;;;;;2.38;2.17;;;4.40;99.90;;;;;;4995905;28;20109;-80
2022/01/30 06:27:10;;;;;;;3.42;2.25;;;4.40;99.90;;;;;;4996341;28;20514;-80
2022/01/30 06:29:36;;;;;;;3.25;2.95;;;4.40;99.90;;;;;;4998997;28;20058;-80
2022/01/30 06:32:01;;;;;;;3.70;1.33;;;4.40;99.90;;;;;;5001015;28;20076;-80
2022/01/30 06:34:28;;;;;;;2.05;1.77;;;4.30;99.90;;;;;;5001090;28;20050;-80
2022/01/30 06:36:54;;;;;;;1.65;1.55;;;4.20;99.90;;;;;;5001319;28;20061;-80
2022/01/30 06:39:20;;;;;;;1.40;1.30;;;4.10;99.90;;;;;;4995981;28;20129;-80
2022/01/30 06:41:45;;;;;;;8.48;2.25;;;4.10;99.90;;;;;;5000348;28;20487;-80
2022/01/30 06:44:11;;;;;;;0.90;0.90;;;4.10;99.90;;;;;;5001221;28;20379;-80
2022/01/30 06:46:37;;;;;;;1.95;1.55;;;4.10;99.90;;;;;;4998251;28;20387;-80
2022/01/30 06:49:03;;;;;;;1.45;1.35;;;4.10;99.90;;;;;;5001128;28;20034;-80
2022/01/30 06:51:28;;;;;;;2.78;1.00;;;4.20;99.90;;;;;;5000717;28;20043;-79
2022/01/30 06:53:54;;;;;;;2.95;1.77;;;4.20;99.90;;;;;;4995018;28;20085;-80
2022/01/30 06:56:20;;;;;;;0.63;0.63;;;4.30;99.90;;;;;;4981633;28;20121;-80
2022/01/30 06:58:45;;;;;;;0.80;0.80;;;4.30;99.90;;;;;;4997902;28;21161;-80
2022/01/30 07:01:11;;;;;;;2.30;1.77;;;4.30;99.90;;;;;;5001305;28;20042;-81
2022/01/30 07:03:36;;;;;;;3.05;1.70;;;4.30;99.90;;;;;;5001233;28;20525;-80
2022/01/30 07:06:02;;;;;;;1.75;1.05;;;4.30;99.90;;;;;;5001088;28;20054;-80
2022/01/30 07:08:28;;;;;;;0.95;0.90;;;4.60;99.90;;;;;;4999259;28;20074;-80
2022/01/30 07:10:53;;;;;;;1.13;1.02;;;4.40;99.90;;;;;;4995695;28;20051;-80
2022/01/30 07:13:19;;;;;;;5.60;3.35;;;4.50;99.90;;;;;;4999447;28;20483;-80
2022/01/30 07:15:44;;;;;;;1.20;1.10;;;4.60;99.90;;;;;;5001319;28;20046;-80
2022/01/30 07:18:10;;;;;;;2.10;1.70;;;4.60;99.90;;;;;;5002965;28;20157;-81
2022/01/30 07:20:36;;;;;;;2.35;2.25;;;4.70;99.90;;;;;;5003843;28;20114;-81
2022/01/30 07:23:01;;;;;;;1.05;1.05;;;4.60;99.90;;;;;;5003934;28;20030;-80
2022/01/30 07:25:27;;;;;;;0.75;0.75;;;4.70;99.90;;;;;;5002430;28;20042;-80
2022/01/30 07:27:53;;;;;;;0.75;0.75;;;4.70;99.90;;;;;;5002005;28;20053;-81
2022/01/30 07:30:18;;;;;;;1.38;1.27;;;4.80;99.90;;;;;;5004002;28;20616;-80
2022/01/30 07:32:44;;;;;;;0.80;0.80;;;4.80;99.90;;;;;;5004604;28;20129;-81
2022/01/30 07:35:10;;;;;;;2.58;1.15;;;4.80;99.90;;;;;;5003979;28;20050;-81
2022/01/30 07:37:35;;;;;;;0.70;0.70;;;4.80;99.90;;;;;;4995110;28;20062;-81
2022/01/30 07:40:02;;;;;;;4.00;2.38;;;4.90;99.90;;;;;;5000907;28;20042;-81
2022/01/30 07:42:28;;;;;;;0.85;0.85;;;4.80;99.90;;;;;;4985951;28;20073;-81
2022/01/30 07:44:54;;;;;;;0.90;0.90;;;4.80;99.90;;;;;;4986046;28;20085;-80
2022/01/30 07:47:23;;;;;;;0.70;0.70;;;4.90;99.90;;;;;;5004450;28;20402;-81
2022/01/30 07:49:51;;;;;;;1.70;1.13;;;4.90;99.90;;;;;;5003541;28;20038;-81
2022/01/30 07:52:21;;;;;;;0.75;0.75;;;4.80;99.90;;;;;;5003881;28;20117;-80
2022/01/30 07:54:47;;;;;;;0.82;0.82;;;4.80;99.90;;;;;;5000353;28;20471;-81
2022/01/30 07:57:14;;;;;;;0.80;0.80;;;4.70;99.90;;;;;;5002773;28;20519;-81
2022/01/30 07:59:41;;;;;;;0.93;0.93;;;4.70;99.90;;;;;;5003459;28;20054;-81
2022/01/30 08:02:06;;;;;;;0.98;0.98;;;4.70;99.90;;;;;;5004177;28;20050;-81
2022/01/30 08:04:32;;;;;;;19.77;1.02;;;4.80;99.90;;;;;;5003704;28;20037;-80
2022/01/30 08:06:59;;;;;;;5.78;2.67;;;4.80;99.90;;;;;;5002463;28;20084;-80
2022/01/30 08:09:25;;;;;;;3.47;3.17;;;4.80;99.90;;;;;;5001995;28;20129;-80
2022/01/30 08:11:50;;;;;;;4.22;3.63;;;4.70;99.90;;;;;;5002931;28;20435;-80
2022/01/30 08:14:16;;;;;;;3.90;2.13;;;4.70;99.90;;;;;;5004259;28;20042;-80
2022/01/30 08:16:41;;;;;;;2.10;1.65;;;4.70;99.90;;;;;;5003477;28;20089;-80
2022/01/30 08:19:07;;;;;;;1.15;1.05;;;4.70;99.90;;;;;;5003773;28;20049;-81
2022/01/30 08:21:32;;;;;;;2.22;2.03;;;4.70;99.90;;;;;;5001080;28;20051;-80
2022/01/30 08:23:58;;;;;;;0.90;0.90;;;4.70;99.90;;;;;;5003036;28;20066;-80
2022/01/30 08:26:23;;;;;;;3.40;1.52;;;4.60;99.90;;;;;;5003881;28;20065;-80
2022/01/30 08:28:49;;;;;;;1.42;1.13;;;4.60;99.90;;;;;;5002613;28;20057;-80
2022/01/30 08:31:15;;;;;;;0.70;0.70;;;4.70;99.90;;;;;;5003196;28;20038;-80
2022/01/30 08:33:40;;;;;;;0.90;0.90;;;4.70;99.90;;;;;;5003457;28;20153;-80
2022/01/30 08:36:06;;;;;;;1.85;1.75;;;4.50;99.90;;;;;;4995214;28;20161;-80
2022/01/30 08:38:32;;;;;;;1.60;1.25;;;4.50;99.90;;;;;;5003308;28;20078;-80
2022/01/30 08:40:58;;;;;;;0.85;0.85;;;4.40;99.90;;;;;;5002597;28;20098;-81
2022/01/30 08:43:23;;;;;;;0.70;0.70;;;4.40;99.90;;;;;;5003312;28;20069;-80
2022/01/30 08:45:50;;;;;;;1.20;1.10;;;4.40;99.90;;;;;;5002802;28;20094;-80
2022/01/30 08:48:17;;;;;;;0.93;0.93;;;4.50;99.90;;;;;;4982781;28;20046;-80
2022/01/30 08:50:43;;;;;;;1.42;1.00;;;4.60;99.90;;;;;;5002318;28;20046;-80
2022/01/30 08:53:09;;;;;;;0.70;0.70;;;4.70;99.90;;;;;;5000311;28;20045;-80
2022/01/30 08:55:34;;;;;;;0.80;0.80;;;4.80;99.90;;;;;;5000825;28;20043;-80
2022/01/30 08:58:07;;;;;;;2.50;2.25;;;4.90;99.90;;;;;;5001921;28;20038;-81
2022/01/30 09:00:35;;;;;;;1.33;1.30;;;4.90;99.90;;;;;;4991368;28;20042;-80
2022/01/30 09:03:02;;;;;;;2.17;2.08;;;4.90;99.90;;;;;;4998506;28;20043;-80
2022/01/30 09:05:29;;;;;;;0.80;0.80;;;4.90;99.90;;;;;;4992883;28;20082;-80
2022/01/30 09:07:55;;;;;;;2.15;1.20;;;4.90;99.90;;;;;;4987116;28;20050;-80
2022/01/30 09:10:20;;;;;;;0.95;0.95;;;4.80;99.90;;;;;;4988892;28;20038;-80
2022/01/30 09:12:46;;;;;;;1.50;1.40;;;4.70;99.90;;;;;;4989242;28;20077;-80
2022/01/30 09:15:14;;;;;;;1.15;1.13;;;4.70;99.90;;;;;;4999319;28;20038;-78
2022/01/30 09:17:40;;;;;;;0.90;0.90;;;4.80;99.90;;;;;;4998653;28;20046;-81
2022/01/30 09:20:06;;;;;;;0.73;0.73;;;5.00;99.90;;;;;;4995350;28;20055;-81
2022/01/30 09:22:32;;;;;;;0.60;0.60;;;5.10;99.90;;;;;;4986659;28;20050;-80
2022/01/30 09:24:58;;;;;;;0.70;0.70;;;5.20;99.90;;;;;;4987590;28;20047;-80
2022/01/30 09:27:23;;;;;;;1.02;1.02;;;5.20;99.90;;;;;;4986848;28;20057;-81
2022/01/30 09:29:49;;;;;;;1.95;1.77;;;5.10;99.90;;;;;;5000241;28;20076;-81
2022/01/30 09:32:14;;;;;;;2.25;1.35;;;5.10;99.90;;;;;;4985636;28;20051;-81
2022/01/30 09:34:40;;;;;;;1.38;1.27;;;5.10;99.90;;;;;;4991630;28;20073;-80
2022/01/30 09:37:07;;;;;;;1.85;0.90;;;5.10;99.90;;;;;;4988733;28;20054;-80
2022/01/30 09:39:33;;;;;;;0.80;0.80;;;5.10;99.90;;;;;;4989195;28;20041;-81
2022/01/30 09:41:58;;;;;;;1.55;1.45;;;5.20;99.90;;;;;;4987873;28;20053;-81
2022/01/30 09:44:24;;;;;;;1.05;1.05;;;5.20;99.90;;;;;;4969799;28;20125;-81
2022/01/30 09:46:51;;;;;;;1.77;1.67;;;5.30;99.90;;;;;;4986505;28;20057;-81
2022/01/30 09:49:22;;;;;;;0.70;0.70;;;5.30;99.90;;;;;;4990928;28;20046;-81
2022/01/30 09:51:47;;;;;;;0.70;0.70;;;5.50;99.90;;;;;;4987272;28;20042;-80
2022/01/30 09:54:13;;;;;;;0.70;0.70;;;5.50;99.90;;;;;;4988181;28;20038;-80
2022/01/30 09:56:39;;;;;;;0.90;0.90;;;5.50;99.90;;;;;;4989256;28;20038;-81
2022/01/30 09:59:05;;;;;;;0.98;0.98;;;5.50;99.90;;;;;;4989821;28;20116;-80
2022/01/30 10:01:33;;;;;;;1.10;1.00;;;5.50;99.90;;;;;;4986726;28;20053;-81
2022/01/30 10:04:00;;;;;;;1.50;1.02;;;5.70;99.90;;;;;;4989680;28;20034;-80
2022/01/30 10:06:32;;;;;;;0.75;0.75;;;5.80;99.90;;;;;;4990299;28;20061;-81
2022/01/30 10:09:00;;;;;;;0.70;0.70;;;5.70;99.90;;;;;;4987195;28;20046;-80
2022/01/30 10:11:49;;;;;;;1.67;1.58;;;5.70;99.90;;;;;;4988439;28;20053;-81
2022/01/30 10:14:15;;;;;;;0.60;0.60;;;5.60;99.90;;;;;;4990295;28;20041;-80
2022/01/30 10:16:44;;;;;;;0.88;0.88;;;5.60;99.90;;;;;;4990302;28;20109;-80
2022/01/30 10:19:17;;;;;;;3.35;1.73;;;5.70;99.90;;;;;;4988793;28;20059;-81
2022/01/30 10:21:43;;;;;;;0.70;0.70;;;5.80;99.90;;;;;;4992166;28;20677;-81
2022/01/30 10:24:26;;;;;;;0.70;0.70;;;5.90;99.90;;;;;;4987435;28;20049;-81
2022/01/30 10:26:57;;;;;;;1.17;1.08;;;6.10;99.90;;;;;;4988349;28;20382;-81
2022/01/30 10:29:28;;;;;;;0.70;0.70;;;6.30;99.90;;;;;;4986835;28;20066;-81
2022/01/30 10:31:58;;;;;;;0.73;0.73;;;6.40;99.90;;;;;;4988875;28;20165;-81
2022/01/30 10:34:25;;;;;;;1.25;1.17;;;6.40;99.90;;;;;;4991362;28;20046;-80
2022/01/30 10:37:10;;;;;;;1.35;1.25;;;6.40;99.90;;;;;;4988958;28;20098;-80
2022/01/30 10:40:08;;;;;;;2.38;1.88;;;6.30;99.90;;;;;;4992479;28;20050;-81
2022/01/30 10:42:49;;;;;;;2.40;2.20;;;6.30;99.90;;;;;;4999820;28;20042;-81
2022/01/30 10:45:32;;;;;;;1.65;1.00;;;6.20;99.90;;;;;;4992376;28;20105;-81
2022/01/30 10:48:17;;;;;;;3.65;1.83;;;6.10;99.90;;;;;;4995019;28;20050;-81
2022/01/30 10:50:47;;;;;;;0.70;0.70;;;6.00;99.90;;;;;;4997768;28;20054;-81
2022/01/30 10:53:24;;;;;;;0.60;0.60;;;6.00;99.90;;;;;;5002193;28;20044;-81
2022/01/30 10:55:51;;;;;;;1.55;1.33;;;6.00;99.90;;;;;;5004346;28;20042;-81
2022/01/30 10:58:20;;;;;;;0.60;0.60;;;6.10;99.90;;;;;;5004157;28;20141;-80
2022/01/30 11:00:53;;;;;;;1.15;0.95;;;6.20;99.90;;;;;;5003292;28;20069;-81
2022/01/30 11:03:50;;;;;;;2.38;2.25;;;6.30;99.90;;;;;;4981644;28;20129;-81
2022/01/30 11:06:16;;;;;;;0.70;0.70;;;6.30;99.90;;;;;;4993923;28;20055;-81
2022/01/30 11:08:46;;;;;;;0.60;0.60;;;6.30;99.90;;;;;;4995399;28;20592;-81
2022/01/30 11:14:02;;;;;;;0.80;0.80;;;6.40;99.90;;;;;;4995552;28;20081;-80
2022/01/30 11:19:15;;;;;;;0.82;0.82;;;6.60;99.90;;;;;;4990094;28;20058;-80
2022/01/30 11:21:42;;;;;;;0.90;0.90;;;6.70;99.90;;;;;;4985066;28;20061;-81
2022/01/30 11:24:14;;;;;;;0.60;0.60;;;6.80;99.90;;;;;;4987559;28;20058;-81
2022/01/30 11:26:40;;;;;;;0.70;0.70;;;6.90;99.90;;;;;;4986512;28;20054;-81
2022/01/30 11:29:14;;;;;;;1.65;1.08;;;6.90;99.90;;;;;;4990159;28;20042;-81
2022/01/30 11:31:40;;;;;;;0.70;0.70;;;6.90;99.90;;;;;;4986617;28;20173;-81
2022/01/30 11:34:06;;;;;;;0.70;0.70;;;6.80;99.90;;;;;;4992006;28;20111;-81
2022/01/30 11:36:34;;;;;;;1.05;1.02;;;6.80;99.90;;;;;;4994113;28;20129;-81
2022/01/30 11:39:05;;;;;;;1.95;1.85;;;6.90;99.90;;;;;;4990888;28;20102;-81
2022/01/30 11:41:34;;;;;;;2.70;1.50;;;6.90;99.90;;;;;;4991489;28;20126;-81
2022/01/30 11:44:18;;;;;;;3.67;2.15;;;6.90;99.90;;;;;;4989055;28;20042;-81
2022/01/30 11:46:52;;;;;;;2.75;1.38;;;6.90;99.90;;;;;;4985906;28;20051;-81
2022/01/30 11:49:18;;;;;;;0.70;0.70;;;6.90;99.90;;;;;;4989384;28;20094;-81
2022/01/30 11:51:50;;;;;;;1.45;1.35;;;7.00;99.90;;;;;;4984210;28;20057;-81
2022/01/30 11:54:49;;;;;;;0.70;0.70;;;7.00;99.90;;;;;;5000031;28;20069;-81
2022/01/30 11:57:18;;;;;;;2.17;1.67;;;7.00;99.90;;;;;;5002680;28;20130;-81
2022/01/30 11:59:45;;;;;;;1.45;1.23;;;7.10;99.90;;;;;;5003558;28;20504;-81
2022/01/30 12:02:29;;;;;;;0.60;0.60;;;7.10;99.90;;;;;;5004424;28;20058;-82
2022/01/30 12:04:57;;;;;;;1.10;0.90;;;7.20;99.90;;;;;;4995329;28;20039;-82
2022/01/30 12:07:37;;;;;;;0.73;0.73;;;7.20;99.90;;;;;;5004177;28;20081;-81
2022/01/30 12:10:15;;;;;;;1.38;1.27;;;7.10;99.90;;;;;;4997748;28;20054;-81
2022/01/30 12:12:55;;;;;;;2.88;2.67;;;7.10;99.90;;;;;;5002493;28;20053;-82
2022/01/30 12:15:36;;;;;;;0.70;0.70;;;7.10;99.90;;;;;;4992964;28;20042;-81
2022/01/30 12:18:03;;;;;;;0.60;0.60;;;7.10;99.90;;;;;;5002157;28;20046;-81
2022/01/30 12:20:49;;;;;;;2.25;1.60;;;7.10;99.90;;;;;;4998750;28;20538;-81
2022/01/30 12:23:28;;;;;;;2.35;1.73;;;7.30;99.90;;;;;;4998344;28;20070;-82
2022/01/30 12:26:14;;;;;;;0.70;0.70;;;7.50;99.90;;;;;;4976921;28;20042;-82
2022/01/30 12:28:54;;;;;;;0.70;0.70;;;7.60;99.90;;;;;;4992346;28;20528;-82
2022/01/30 12:31:34;;;;;;;1.35;1.25;;;7.60;99.90;;;;;;4990860;28;20050;-82
2022/01/30 12:34:03;;;;;;;9.75;1.70;;;7.50;99.90;;;;;;4988106;28;20035;-82
2022/01/30 12:36:31;;;;;;;1.15;1.10;;;7.30;99.90;;;;;;4991154;28;20054;-82
2022/01/30 12:39:00;;;;;;;1.27;1.25;;;7.20;99.90;;;;;;4985601;28;20042;-82
2022/01/30 12:41:27;;;;;;;0.70;0.70;;;7.10;99.90;;;;;;4969309;28;20071;-82
2022/01/30 12:44:01;;;;;;;1.13;1.02;;;6.90;99.90;;;;;;4972414;28;20047;-83
2022/01/30 12:46:30;;;;;;;0.60;0.60;;;6.80;99.90;;;;;;4989322;28;20058;-83
2022/01/30 12:49:19;;;;;;;0.60;0.60;;;6.70;99.90;;;;;;4996558;28;20042;-82
2022/01/30 12:51:49;;;;;;;1.48;1.23;;;6.50;99.90;;;;;;4993180;28;20357;-82
2022/01/30 12:54:18;;;;;;;0.98;0.98;;;6.30;99.90;;;;;;4987955;28;20039;-83
2022/01/30 12:56:44;;;;;;;1.58;0.90;;;6.30;99.90;;;;;;4985293;28;20122;-83
2022/01/30 12:59:13;;;;;;;0.70;0.70;;;6.40;99.90;;;;;;4983819;28;20057;-82
2022/01/30 13:01:44;;;;;;;0.73;0.73;;;6.50;99.90;;;;;;4999963;28;20559;-83
2022/01/30 13:04:13;;;;;;;12.55;2.25;;;6.60;99.90;;;;;;4999425;28;20136;-83
2022/01/30 13:06:44;;;;;;;3.85;1.50;;;6.60;99.90;;;;;;5001653;28;20066;-84
2022/01/30 13:09:11;;;;;;;2.22;0.82;;;6.70;99.90;;;;;;4985234;28;20403;-84
2022/01/30 13:11:37;;;;;;;4.90;1.88;;;6.80;99.90;;;;;;5000578;28;20403;-82
2022/01/30 13:14:08;;;;;;;1.02;0.85;;;6.80;99.90;;;;;;4980737;28;20047;-81
2022/01/30 13:16:44;;;;;;;5.57;2.25;;;6.70;99.90;;;;;;5000991;28;20050;-81
2022/01/30 13:19:12;;;;;;;1.23;1.13;;;6.60;99.90;;;;;;5000652;28;20042;-81
2022/01/30 13:21:39;;;;;;;1.00;1.00;;;6.50;99.90;;;;;;5002094;28;20042;-81
2022/01/30 13:24:07;;;;;;;0.60;0.60;;;6.30;99.90;;;;;;5000218;28;20037;-81
2022/01/30 13:26:37;;;;;;;1.42;1.10;;;6.20;99.90;;;;;;5002352;28;20049;-82
2022/01/30 13:29:13;;;;;;;0.95;0.95;;;6.20;99.90;;;;;;5002912;28;20126;-81
2022/01/30 13:31:39;;;;;;;0.70;0.70;;;6.30;99.90;;;;;;4993974;28;20674;-81
2022/01/30 13:34:17;;;;;;;0.80;0.80;;;6.40;99.90;;;;;;4998650;28;20046;-82
2022/01/30 13:36:52;;;;;;;0.80;0.80;;;6.50;99.90;;;;;;5000131;28;20089;-82
2022/01/30 13:39:25;;;;;;;5.07;1.58;;;6.60;99.90;;;;;;5002321;28;20430;-81
2022/01/30 13:42:01;;;;;;;0.63;0.63;;;6.70;99.90;;;;;;5001786;28;20054;-81
2022/01/30 13:44:38;;;;;;;0.65;0.65;;;6.70;99.90;;;;;;4997542;28;20053;-81
2022/01/30 13:47:05;;;;;;;0.70;0.70;;;6.70;99.90;;;;;;5001251;28;20125;-81
2022/01/30 13:49:42;;;;;;;0.60;0.60;;;6.70;99.90;;;;;;5001897;28;20042;-81
2022/01/30 13:52:10;;;;;;;0.65;0.65;;;6.60;99.90;;;;;;4993876;28;20046;-81